全部
Fisher County Airport (Rotan/Roby, TX) 56F 天氣
There is no TAF data available at 56F or any nearby airports.
There is no METAR data available at 56F. Showing METAR data for KSWW (25 mi S).
SWW近期METAR歷史資料(56F無資料)
| Date | Time (CDT) | Flight Rules | Wind Dir. | Speed | Type | Height AGL (ft) | Visibility | Temp (°C) | Temp (°F) | Dew Point (°C) | Dew Point (°F) | Rel. Humid. | Pressure | Density Altitude | Remarks |
|---|---|---|---|---|---|---|---|---|---|---|---|---|---|---|---|
| 04-五月 | 17:15 | VFR | 200° | 13 kt | 10 miles | 33° | 91° | 9° | 48° | 22% | 29.74 in Hg | 5,194 ft | Wind gusting to 21 KT | ||
| 04-五月 | 16:55 | VFR | 210° | 13 kt | 10 miles | 33° | 91° | 10° | 50° | 24% | 29.75 in Hg | 5,184 ft | Wind gusting to 18 KT | ||
| 04-五月 | 16:15 | VFR | 210° | 15 kt | 10 miles | 33° | 91° | 10° | 50° | 24% | 29.78 in Hg | 5,154 ft | Wind gusting to 20 KT | ||
| 04-五月 | 15:55 | VFR | 210° | 12 kt | 10 miles | 32° | 89° | 10° | 50° | 25% | 29.79 in Hg | 5,024 ft | Wind gusting to 21 KT | ||
| 04-五月 | 15:35 | VFR | 200° | 12 kt | 10 miles | 32° | 89° | 11° | 51° | 28% | 29.80 in Hg | 5,014 ft | Wind gusting to 22 KT | ||
| 04-五月 | 15:15 | VFR | 200° | 14 kt | 10 miles | 31° | 87° | 11° | 51° | 28% | 29.80 in Hg | 4,894 ft | Wind gusting to 18 KT | ||
| 04-五月 | 14:55 | VFR | 210° | 13 kt | 10 miles | 31° | 87° | 11° | 51° | 29% | 29.82 in Hg | 4,874 ft | |||
| 04-五月 | 14:15 | VFR | 220° | 15 kt | 10 miles | 30° | 86° | 11° | 51° | 32% | 29.84 in Hg | 4,734 ft | Wind gusting to 20 KT | ||
| 04-五月 | 13:55 | VFR | 210° | 15 kt | 10 miles | 29° | 84° | 11° | 51° | 33% | 29.85 in Hg | 4,604 ft | Wind gusting to 20 KT | ||
| 04-五月 | 13:35 | VFR | 220° | 15 kt | 10 miles | 30° | 86° | 11° | 51° | 32% | 29.86 in Hg | 4,714 ft | Wind gusting to 20 KT | ||
| 04-五月 | 13:15 | VFR | 220° | 12 kt | 10 miles | 29° | 84° | 11° | 51° | 33% | 29.87 in Hg | 4,584 ft | Wind gusting to 22 KT | ||
| 04-五月 | 12:55 | VFR | 230° | 15 kt | 10 miles | 28° | 82° | 11° | 51° | 35% | 29.88 in Hg | 4,454 ft | |||
| 04-五月 | 12:35 | VFR | 210° | 15 kt | 10 miles | 27° | 80° | 12° | 53° | 39% | 29.88 in Hg | 4,334 ft | Wind gusting to 21 KT | ||
| 04-五月 | 12:15 | VFR | 220° | 16 kt | 10 miles | 25° | 77° | 12° | 53° | 44% | 29.89 in Hg | 4,084 ft | Wind gusting to 22 KT | ||
| 04-五月 | 11:55 | VFR | 210° | 19 kt | 10 miles | 25° | 77° | 12° | 53° | 44% | 29.89 in Hg | 4,084 ft | |||
| 04-五月 | 11:15 | VFR | 210° | 18 kt | 10 miles | 23° | 73° | 12° | 53° | 49% | 29.90 in Hg | 3,834 ft | Wind gusting to 24 KT | ||
| 04-五月 | 10:55 | VFR | 210° | 19 kt | 10 miles | 23° | 73° | 12° | 53° | 50% | 29.90 in Hg | 3,834 ft | |||
| 04-五月 | 10:15 | VFR | 220° | 18 kt | 10 miles | 22° | 71° | 12° | 53° | 52% | 29.91 in Hg | 3,704 ft | Wind gusting to 22 KT | ||
| 04-五月 | 09:55 | VFR | 210° | 19 kt | 10 miles | 21° | 69° | 12° | 53° | 54% | 29.90 in Hg | 3,594 ft | Wind gusting to 24 KT | ||
| 04-五月 | 09:35 | VFR | 210° | 20 kt | 10 miles | 21° | 69° | 11° | 51° | 54% | 29.91 in Hg | 3,584 ft | Wind gusting to 26 KT | ||
| 04-五月 | 09:15 | VFR | 200° | 20 kt | 10 miles | 20° | 68° | 11° | 51° | 58% | 29.91 in Hg | 3,464 ft | Wind gusting to 23 KT | ||
| 04-五月 | 08:55 | VFR | 200° | 20 kt | 10 miles | 19° | 66° | 11° | 51° | 60% | 29.90 in Hg | 3,354 ft | Wind gusting to 24 KT | ||
| 04-五月 | 08:35 | VFR | 200° | 20 kt | 10 miles | 19° | 66° | 10° | 50° | 58% | 29.90 in Hg | 3,354 ft | |||
| 04-五月 | 08:15 | VFR | 200° | 19 kt | 10 miles | 18° | 64° | 10° | 50° | 59% | 29.89 in Hg | 3,244 ft | Wind gusting to 22 KT |
登入
| 您的瀏覽器不支援. 升級您的瀏覽器 |
